Kaszuby — C6XD6 — position and weather

sailwx.info

Track history (hours):
 
Tides and Currents Weather Stations Pressure Air Temp Water Temp Dewpoint Dewpoint Depression Visibility Wind Speed Wind Dir Waves Ship Positions

Kaszuby

Last reported at 2016-May-01 13:34 UTC. Time now 2016-May-01 13:44 UTC.
Position N 55°18' E 011°02'.

Length 190 m; draft 8.7 m.

Type: Cargo ship. MMSI: 311005600.

Date/timePositionNaut miles runAvg speedWind from/ knotsBaromVisibWave heightAir tempDewpointWater temp
2016-May-01 13:34N 55°18' E 011°02'1211.2
2016-May-01 12:32N 55°28' E 010°54'2710.9
2016-May-01 10:06N 55°55' E 010°56'711.8
2016-May-01 09:30N 56°01' E 011°03'1411.9
2016-May-01 08:21N 56°12' E 011°18'1212.8
2016-May-01 07:24N 56°22' E 011°29'1112.9
2016-May-01 06:33N 56°32' E 011°39'1312.9
2016-May-01 05:33N 56°43' E 011°50'1212.5
2016-May-01 04:34N 56°55' E 011°46'1312.7
2016-May-01 03:34N 57°07' E 011°38'1312.8
2016-May-01 02:33N 57°19' E 011°29'1312.6
2016-May-01 01:33N 57°31' E 011°19'1312.9
2016-May-01 00:33N 57°39' E 010°60'1312.8
2016-Apr-30 23:33N 57°48' E 010°43'1413.6
2016-Apr-30 22:33N 57°48' E 010°18'26513.1
2016-Apr-30 02:20N 54°22' E 005°20'1013.3
2016-Apr-30 01:34N 54°12' E 005°13'1313.3
2016-Apr-30 00:33N 53°60' E 005°05'1413.5
2016-Apr-29 23:33N 53°47' E 004°56'8413.9
2016-Apr-29 17:30N 52°34' E 003°49'5212.8
2016-Apr-29 13:26N 51°56' E 002°51'1111.8
2016-Apr-29 12:32N 51°48' E 002°40'1311.8
2016-Apr-29 11:25N 51°38' E 002°26'1112.3
2016-Apr-29 10:33N 51°30' E 002°15'1212.3
2016-Apr-29 09:33N 51°18' E 002°07'1212.5
2016-Apr-29 08:33N 51°10' E 001°52'1313.5
2016-Apr-29 07:33N 51°01' E 001°36'1312.6
2016-Apr-29 06:33N 50°51' E 001°25'4212.6
2016-Apr-29 03:15N 50°25' E 000°33'913.8
2016-Apr-29 02:34N 50°23' E 000°18'1414.3
2016-Apr-29 01:33N 50°20' W 000°04'1514.9
2016-Apr-29 00:32N 50°15' W 000°26'8813.9
2016-Apr-28 18:14N 49°51' W 002°38'811.9
2016-Apr-28 17:33N 49°48' W 002°49'1212.2
2016-Apr-28 16:33N 49°43' W 003°07'1312.5
2016-Apr-28 15:33N 49°38' W 003°24'  
2016-Apr-26 07:22N 40°00' W 009°51'1411.8
2016-Apr-26 06:12N 39°47' W 009°50'711.1
2016-Apr-26 05:34N 39°39' W 009°50'1211.2
2016-Apr-26 04:30N 39°28' W 009°51'1211.5
2016-Apr-26 03:25N 39°15' W 009°51'1111.5
2016-Apr-26 02:28N 39°04' W 009°51'1311.5
2016-Apr-26 01:21N 38°51' W 009°51'911.5
2016-Apr-26 00:33N 38°42' W 009°51'1111.3
2016-Apr-25 23:33N 38°31' W 009°48'1111.3
2016-Apr-25 22:33N 38°20' W 009°45'1111.1
2016-Apr-25 21:33N 38°09' W 009°42'1110.8
2016-Apr-25 20:34N 37°59' W 009°39'1110.6
2016-Apr-25 19:33N 37°49' W 009°36'1110.6
2016-Apr-25 18:33N 37°38' W 009°33'1111.1
2016-Apr-25 17:33N 37°27' W 009°30'7 7.0
2016-Apr-25 16:33N 37°21' W 009°28'1111.1
2016-Apr-25 15:33N 37°10' W 009°25'1111.4
2016-Apr-25 14:33N 36°59' W 009°21'1211.3
2016-Apr-25 13:29N 36°48' W 009°14'  
Track history (hours):
 
Tides and Currents Weather Stations Pressure Air Temp Water Temp Dewpoint Dewpoint Depression Visibility Wind Speed Wind Dir Waves Ship Positions

Kaszuby

Last reported at 2016-May-01 13:34 UTC. Time now 2016-May-01 13:44 UTC.
Position N 55°18' E 011°02'.

Length 190 m; draft 8.7 m.

Type: Cargo ship. MMSI: 311005600.

Date/timePositionNaut miles runAvg speedWind from/ knotsBaromVisibWave heightAir tempDewpointWater temp
2016-May-01 13:34N 55°18' E 011°02'1211.2
2016-May-01 12:32N 55°28' E 010°54'2710.9
2016-May-01 10:06N 55°55' E 010°56'711.8
2016-May-01 09:30N 56°01' E 011°03'1411.9
2016-May-01 08:21N 56°12' E 011°18'1212.8
2016-May-01 07:24N 56°22' E 011°29'1112.9
2016-May-01 06:33N 56°32' E 011°39'1312.9
2016-May-01 05:33N 56°43' E 011°50'1212.5
2016-May-01 04:34N 56°55' E 011°46'1312.7
2016-May-01 03:34N 57°07' E 011°38'1312.8
2016-May-01 02:33N 57°19' E 011°29'1312.6
2016-May-01 01:33N 57°31' E 011°19'1312.9
2016-May-01 00:33N 57°39' E 010°60'1312.8
2016-Apr-30 23:33N 57°48' E 010°43'1413.6
2016-Apr-30 22:33N 57°48' E 010°18'26513.1
2016-Apr-30 02:20N 54°22' E 005°20'1013.3
2016-Apr-30 01:34N 54°12' E 005°13'1313.3
2016-Apr-30 00:33N 53°60' E 005°05'1413.5
2016-Apr-29 23:33N 53°47' E 004°56'8413.9
2016-Apr-29 17:30N 52°34' E 003°49'5212.8
2016-Apr-29 13:26N 51°56' E 002°51'1111.8
2016-Apr-29 12:32N 51°48' E 002°40'1311.8
2016-Apr-29 11:25N 51°38' E 002°26'1112.3
2016-Apr-29 10:33N 51°30' E 002°15'1212.3
2016-Apr-29 09:33N 51°18' E 002°07'1212.5
2016-Apr-29 08:33N 51°10' E 001°52'1313.5
2016-Apr-29 07:33N 51°01' E 001°36'1312.6
2016-Apr-29 06:33N 50°51' E 001°25'4212.6
2016-Apr-29 03:15N 50°25' E 000°33'913.8
2016-Apr-29 02:34N 50°23' E 000°18'1414.3
2016-Apr-29 01:33N 50°20' W 000°04'1514.9
2016-Apr-29 00:32N 50°15' W 000°26'8813.9
2016-Apr-28 18:14N 49°51' W 002°38'811.9
2016-Apr-28 17:33N 49°48' W 002°49'1212.2
2016-Apr-28 16:33N 49°43' W 003°07'1312.5
2016-Apr-28 15:33N 49°38' W 003°24'  
2016-Apr-26 07:22N 40°00' W 009°51'1411.8
2016-Apr-26 06:12N 39°47' W 009°50'711.1
2016-Apr-26 05:34N 39°39' W 009°50'1211.2
2016-Apr-26 04:30N 39°28' W 009°51'1211.5
2016-Apr-26 03:25N 39°15' W 009°51'1111.5
2016-Apr-26 02:28N 39°04' W 009°51'1311.5
2016-Apr-26 01:21N 38°51' W 009°51'911.5
2016-Apr-26 00:33N 38°42' W 009°51'1111.3
2016-Apr-25 23:33N 38°31' W 009°48'1111.3
2016-Apr-25 22:33N 38°20' W 009°45'1111.1
2016-Apr-25 21:33N 38°09' W 009°42'1110.8
2016-Apr-25 20:34N 37°59' W 009°39'1110.6
2016-Apr-25 19:33N 37°49' W 009°36'1110.6
2016-Apr-25 18:33N 37°38' W 009°33'1111.1
2016-Apr-25 17:33N 37°27' W 009°30'7 7.0
2016-Apr-25 16:33N 37°21' W 009°28'1111.1
2016-Apr-25 15:33N 37°10' W 009°25'1111.4
2016-Apr-25 14:33N 36°59' W 009°21'1211.3
2016-Apr-25 13:29N 36°48' W 009°14'  

Dump ship's entire track history